Time;durP1;ratioP1;P1;durP2;ratioP2;P2;SDS_P1;SDS_P2;PMS_P1;PMS_P2;Temp;Humidity;BMP_temperature;BMP_pressure;BME280_temperature;BME280_humidity;BME280_pressure;Samples;Min_cycle;Max_cycle;Signal;HPM_P1;HPM_P2
2023/11/15 00:01:09;;;;;;;2.83;1.30;;;8.80;99.90;;;;;;4221768;28;20608;-78
2023/11/15 00:03:13;;;;;;;3.53;1.00;;;8.80;99.90;;;;;;4220331;28;20187;-78
2023/11/15 00:05:15;;;;;;;3.33;1.10;;;8.80;99.90;;;;;;4222668;28;20224;-79
2023/11/15 00:07:20;;;;;;;2.07;1.00;;;8.80;99.90;;;;;;4216181;28;20203;-79
2023/11/15 00:09:22;;;;;;;3.50;1.20;;;8.80;99.90;;;;;;4224802;28;20294;-79
2023/11/15 00:11:24;;;;;;;2.00;1.20;;;8.80;99.90;;;;;;4224162;28;20207;-79
2023/11/15 00:13:27;;;;;;;3.57;1.30;;;8.80;99.90;;;;;;4222435;28;20346;-79
2023/11/15 00:15:29;;;;;;;2.00;1.20;;;8.80;99.90;;;;;;4218158;28;20240;-81
2023/11/15 00:17:36;;;;;;;2.53;1.03;;;8.80;99.90;;;;;;4219112;28;20211;-80
2023/11/15 00:19:37;;;;;;;2.73;1.20;;;8.70;99.90;;;;;;4218407;28;20298;-80
2023/11/15 00:21:39;;;;;;;1.63;1.00;;;8.80;99.90;;;;;;4217117;28;20207;-79
2023/11/15 00:23:40;;;;;;;1.57;1.07;;;8.80;99.90;;;;;;4221934;28;20234;-80
2023/11/15 00:25:42;;;;;;;3.33;1.30;;;8.80;99.90;;;;;;4221471;28;20225;-80
2023/11/15 00:27:44;;;;;;;1.10;0.87;;;8.70;99.90;;;;;;4217717;28;20205;-80
2023/11/15 00:29:47;;;;;;;2.10;1.00;;;8.70;99.90;;;;;;4220033;28;20819;-80
2023/11/15 00:31:52;;;;;;;1.37;0.90;;;8.70;99.90;;;;;;4224367;28;20198;-80
2023/11/15 00:33:54;;;;;;;2.00;0.90;;;8.70;99.90;;;;;;4218592;28;20215;-80
2023/11/15 00:35:56;;;;;;;2.47;1.10;;;8.70;99.90;;;;;;4218853;28;20219;-81
2023/11/15 00:37:58;;;;;;;2.03;0.90;;;8.70;99.90;;;;;;4221972;28;20293;-80
2023/11/15 00:39:59;;;;;;;1.73;0.80;;;8.70;99.90;;;;;;4223892;28;20213;-80
2023/11/15 00:42:07;;;;;;;1.13;0.90;;;8.70;99.90;;;;;;4222330;28;20665;-80
2023/11/15 00:44:09;;;;;;;2.73;0.90;;;8.70;99.90;;;;;;4218853;28;20217;-80
2023/11/15 00:46:15;;;;;;;2.63;0.80;;;8.70;99.90;;;;;;4216582;28;20226;-79
2023/11/15 00:48:17;;;;;;;2.07;0.77;;;8.80;99.90;;;;;;4221438;28;20201;-80
2023/11/15 00:50:19;;;;;;;3.73;0.90;;;8.70;99.90;;;;;;4221241;28;20209;-79
2023/11/15 00:52:20;;;;;;;2.13;0.80;;;8.70;99.90;;;;;;4224528;28;20204;-80
2023/11/15 00:54:22;;;;;;;3.27;0.90;;;8.70;99.90;;;;;;4220945;28;20209;-80
2023/11/15 00:56:25;;;;;;;6.40;1.10;;;8.70;99.90;;;;;;4221355;28;20257;-80
2023/11/15 00:58:29;;;;;;;0.77;0.53;;;8.60;99.90;;;;;;4220291;28;20206;-79
2023/11/15 01:00:39;;;;;;;3.70;0.70;;;8.70;99.90;;;;;;4220293;28;20205;-80
2023/11/15 01:02:46;;;;;;;4.37;0.60;;;8.60;99.90;;;;;;4218162;28;20235;-79
2023/11/15 01:04:50;;;;;;;2.30;0.70;;;8.60;99.90;;;;;;4217558;28;20224;-80
2023/11/15 01:06:51;;;;;;;2.70;0.73;;;8.60;99.90;;;;;;4222284;28;20224;-79
2023/11/15 01:08:54;;;;;;;1.97;0.80;;;8.60;99.90;;;;;;4216126;28;20198;-80
2023/11/15 01:10:56;;;;;;;1.47;0.70;;;8.60;99.90;;;;;;4221504;28;20241;-80
2023/11/15 01:12:58;;;;;;;1.07;0.57;;;8.50;99.90;;;;;;4219408;28;20194;-80
2023/11/15 01:15:01;;;;;;;3.27;0.70;;;8.50;99.90;;;;;;4220534;28;20216;-80
2023/11/15 01:17:03;;;;;;;1.43;0.60;;;8.50;99.90;;;;;;4220617;28;20204;-82
2023/11/15 01:19:06;;;;;;;3.17;0.70;;;8.50;99.90;;;;;;4218134;28;20468;-80
2023/11/15 01:21:11;;;;;;;1.23;0.70;;;8.50;99.90;;;;;;4217813;28;20209;-79
2023/11/15 01:23:13;;;;;;;2.50;0.70;;;8.50;99.90;;;;;;4224076;28;20228;-80
2023/11/15 01:25:15;;;;;;;1.77;0.60;;;8.50;99.90;;;;;;4221816;28;20375;-81
2023/11/15 01:27:17;;;;;;;4.03;0.90;;;8.50;99.90;;;;;;4221672;28;20820;-80
2023/11/15 01:29:19;;;;;;;1.10;0.80;;;8.50;99.90;;;;;;4217799;28;20203;-79
2023/11/15 01:31:21;;;;;;;1.47;0.80;;;8.40;99.90;;;;;;4222280;28;20269;-79
2023/11/15 01:33:23;;;;;;;2.80;1.00;;;8.30;99.90;;;;;;4216990;28;20212;-79
2023/11/15 01:35:26;;;;;;;0.90;0.70;;;8.40;99.90;;;;;;4218859;28;20223;-79
2023/11/15 01:37:28;;;;;;;1.97;0.70;;;8.40;99.90;;;;;;4222402;28;20197;-79
2023/11/15 01:39:30;;;;;;;2.47;0.90;;;8.40;99.90;;;;;;4217509;28;20205;-79
2023/11/15 01:41:31;;;;;;;3.20;0.70;;;8.40;99.90;;;;;;4221668;28;20680;-79
2023/11/15 01:43:33;;;;;;;1.33;0.60;;;8.40;99.90;;;;;;4222958;28;20210;-79
2023/11/15 01:45:36;;;;;;;1.27;0.83;;;8.40;99.90;;;;;;4214571;28;20709;-80
2023/11/15 01:47:42;;;;;;;2.23;1.03;;;8.40;99.90;;;;;;4219888;28;20202;-80
2023/11/15 01:49:44;;;;;;;1.13;0.70;;;8.40;99.90;;;;;;4222658;28;20919;-80
2023/11/15 01:51:49;;;;;;;0.83;0.70;;;8.40;99.90;;;;;;4221791;28;20201;-79
2023/11/15 01:53:51;;;;;;;0.87;0.70;;;8.30;99.90;;;;;;4216134;28;20575;-78
2023/11/15 01:55:53;;;;;;;4.03;0.97;;;8.30;99.90;;;;;;4219441;28;20222;-79
2023/11/15 01:57:57;;;;;;;3.57;0.80;;;8.30;99.90;;;;;;4219094;28;20420;-78
2023/11/15 02:00:00;;;;;;;3.73;0.93;;;8.40;99.90;;;;;;4219589;28;20217;-78
2023/11/15 02:02:02;;;;;;;0.97;0.57;;;8.30;99.90;;;;;;4216283;28;20206;-80
2023/11/15 02:04:15;;;;;;;2.13;0.80;;;8.50;99.90;;;;;;4214754;28;20579;-79
2023/11/15 02:06:28;;;;;;;1.13;0.80;;;8.50;99.90;;;;;;4215452;28;20225;-79
2023/11/15 02:08:32;;;;;;;1.60;0.97;;;8.30;99.90;;;;;;4221534;28;20205;-79
2023/11/15 02:10:35;;;;;;;1.37;0.93;;;8.30;99.90;;;;;;4218228;28;20214;-80
2023/11/15 02:12:36;;;;;;;2.43;1.00;;;8.30;99.90;;;;;;4215074;28;20201;-80
2023/11/15 02:14:38;;;;;;;1.43;0.87;;;8.30;99.90;;;;;;4218276;28;20240;-79
2023/11/15 02:16:44;;;;;;;2.10;0.80;;;8.30;99.90;;;;;;4216589;28;20320;-78
2023/11/15 02:18:45;;;;;;;2.03;1.20;;;8.30;99.90;;;;;;4224172;28;20253;-78
2023/11/15 02:20:47;;;;;;;2.37;0.90;;;8.30;99.90;;;;;;4223919;28;20224;-79
2023/11/15 02:22:50;;;;;;;5.00;0.80;;;8.30;99.90;;;;;;4220644;28;20206;-80
2023/11/15 02:24:53;;;;;;;2.03;1.00;;;8.30;99.90;;;;;;4223919;28;20724;-79
2023/11/15 02:26:55;;;;;;;1.77;0.80;;;8.30;99.90;;;;;;4220064;28;20274;-80
2023/11/15 02:28:57;;;;;;;2.23;1.70;;;8.30;99.90;;;;;;4217969;28;20617;-79
2023/11/15 02:30:59;;;;;;;3.43;1.50;;;8.30;99.90;;;;;;4221537;28;20211;-79
2023/11/15 02:33:01;;;;;;;4.87;1.43;;;8.30;99.90;;;;;;4217436;28;20651;-79
2023/11/15 02:35:03;;;;;;;2.23;1.50;;;8.40;99.90;;;;;;4217513;28;20299;-80
2023/11/15 02:37:07;;;;;;;3.97;1.40;;;8.30;99.90;;;;;;4221134;28;20243;-79
2023/11/15 02:39:09;;;;;;;4.57;1.70;;;8.30;99.90;;;;;;4221733;28;20596;-80
2023/11/15 02:41:12;;;;;;;3.43;1.60;;;8.30;99.90;;;;;;4219543;28;20200;-80
2023/11/15 02:43:14;;;;;;;3.50;1.23;;;8.30;99.90;;;;;;4216108;27;20228;-79
2023/11/15 02:45:16;;;;;;;7.70;2.20;;;8.30;99.90;;;;;;4222452;28;20645;-79
2023/11/15 02:47:18;;;;;;;10.07;2.40;;;8.40;99.90;;;;;;4221099;28;20209;-79
2023/11/15 02:49:19;;;;;;;4.97;1.77;;;8.30;99.90;;;;;;4228910;28;20596;-79
2023/11/15 02:51:21;;;;;;;4.67;2.10;;;8.30;99.90;;;;;;4221434;28;20193;-81
2023/11/15 02:53:23;;;;;;;4.43;2.30;;;8.30;99.90;;;;;;4220526;28;20201;-79
2023/11/15 02:55:25;;;;;;;4.73;2.00;;;8.30;99.90;;;;;;4227455;28;20270;-79
2023/11/15 02:57:29;;;;;;;5.53;1.87;;;8.30;99.90;;;;;;4223759;28;20213;-80
2023/11/15 02:59:31;;;;;;;4.20;1.93;;;8.30;99.90;;;;;;4221315;28;20212;-79
2023/11/15 03:01:33;;;;;;;5.67;1.67;;;8.40;99.90;;;;;;4217352;28;20580;-79
2023/11/15 03:03:35;;;;;;;5.53;1.90;;;8.30;99.90;;;;;;4213751;28;20714;-78
2023/11/15 03:05:37;;;;;;;2.83;1.63;;;8.30;99.90;;;;;;4213767;28;20257;-79
2023/11/15 03:07:39;;;;;;;3.37;1.80;;;8.30;99.90;;;;;;4223290;28;20214;-79
2023/11/15 03:09:41;;;;;;;4.63;1.63;;;8.30;99.90;;;;;;4219379;28;20791;-78
2023/11/15 03:11:44;;;;;;;4.30;1.80;;;8.30;99.90;;;;;;4223203;28;20259;-79
2023/11/15 03:13:47;;;;;;;3.63;1.50;;;8.30;99.90;;;;;;4223483;28;20600;-80
2023/11/15 03:15:50;;;;;;;3.20;1.57;;;8.30;99.90;;;;;;4223311;28;20299;-78
2023/11/15 03:17:51;;;;;;;3.27;1.57;;;8.30;99.90;;;;;;4225279;28;20292;-79
2023/11/15 03:19:53;;;;;;;5.13;1.60;;;8.30;99.90;;;;;;4219938;28;20204;-78
2023/11/15 03:21:55;;;;;;;4.27;1.77;;;8.30;99.90;;;;;;4226920;28;20218;-78
2023/11/15 03:23:57;;;;;;;2.43;1.83;;;8.30;99.90;;;;;;4223013;28;21137;-78
2023/11/15 03:25:59;;;;;;;3.17;1.77;;;8.30;99.90;;;;;;4221193;28;20228;-78
2023/11/15 03:28:01;;;;;;;5.07;1.70;;;8.30;99.90;;;;;;4218262;28;20210;-79
2023/11/15 03:30:05;;;;;;;5.30;1.83;;;8.30;99.90;;;;;;4220716;28;20229;-78
2023/11/15 03:32:07;;;;;;;4.67;1.80;;;8.30;99.90;;;;;;4221127;28;20216;-78
2023/11/15 03:34:09;;;;;;;2.60;1.67;;;8.30;99.90;;;;;;4218396;28;20206;-78
2023/11/15 03:36:10;;;;;;;3.70;1.67;;;8.30;99.90;;;;;;4220614;28;20692;-78
2023/11/15 03:38:12;;;;;;;7.53;1.97;;;8.40;99.90;;;;;;4227098;28;20189;-78
2023/11/15 03:40:13;;;;;;;8.87;1.73;;;8.30;99.90;;;;;;4225233;28;20193;-78
2023/11/15 03:42:16;;;;;;;3.43;1.70;;;8.30;99.90;;;;;;4217280;28;20689;-78
2023/11/15 03:44:18;;;;;;;1.97;1.20;;;8.30;99.90;;;;;;4217684;28;20677;-78
2023/11/15 03:46:22;;;;;;;5.80;1.70;;;8.40;99.90;;;;;;4220459;28;20223;-78
2023/11/15 03:48:23;;;;;;;2.97;1.70;;;8.40;99.90;;;;;;4217295;28;20214;-79
2023/11/15 03:50:25;;;;;;;5.23;1.90;;;8.40;99.90;;;;;;4217678;28;20210;-79
2023/11/15 03:52:26;;;;;;;5.10;1.57;;;8.40;99.90;;;;;;4216490;28;20213;-80
2023/11/15 03:54:28;;;;;;;3.17;1.70;;;8.40;99.90;;;;;;4225533;27;20668;-79
2023/11/15 03:56:30;;;;;;;4.20;1.80;;;8.40;99.90;;;;;;4221409;28;20233;-79
2023/11/15 03:58:32;;;;;;;5.43;1.53;;;8.40;99.90;;;;;;4221465;28;20202;-81
2023/11/15 04:00:34;;;;;;;2.63;1.60;;;8.40;99.90;;;;;;4220515;28;20230;-81
2023/11/15 04:02:37;;;;;;;5.37;1.60;;;8.40;99.90;;;;;;4221681;28;20627;-78
2023/11/15 04:04:41;;;;;;;5.00;1.50;;;8.40;99.90;;;;;;4222104;28;20664;-81
2023/11/15 04:06:43;;;;;;;2.27;1.40;;;8.40;99.90;;;;;;4219466;28;21056;-79
2023/11/15 04:08:45;;;;;;;3.83;1.60;;;8.40;99.90;;;;;;4221833;28;20659;-80
2023/11/15 04:10:48;;;;;;;3.73;1.40;;;8.40;99.90;;;;;;4225103;28;20210;-80
2023/11/15 04:12:52;;;;;;;3.20;1.57;;;8.40;99.90;;;;;;4227166;28;20293;-78
2023/11/15 04:14:54;;;;;;;2.77;1.50;;;8.40;99.90;;;;;;4225940;28;20248;-78
2023/11/15 04:16:56;;;;;;;4.03;1.50;;;8.40;99.90;;;;;;4219876;28;20236;-80
2023/11/15 04:18:59;;;;;;;5.03;1.77;;;8.40;99.90;;;;;;4217473;28;20320;-79
2023/11/15 04:21:01;;;;;;;3.00;1.43;;;8.40;99.90;;;;;;4217266;28;20968;-78
2023/11/15 04:23:03;;;;;;;3.60;1.60;;;8.40;99.90;;;;;;4217903;28;20202;-80
2023/11/15 04:25:07;;;;;;;4.17;1.67;;;8.40;99.90;;;;;;4215637;28;20288;-79
2023/11/15 04:27:09;;;;;;;6.03;1.50;;;8.40;99.90;;;;;;4222630;28;20228;-79
2023/11/15 04:29:10;;;;;;;7.83;1.57;;;8.40;99.90;;;;;;4220675;28;20264;-79
2023/11/15 04:31:12;;;;;;;5.77;1.50;;;8.50;99.90;;;;;;4224155;28;20204;-80
2023/11/15 04:33:16;;;;;;;5.17;1.60;;;8.40;99.90;;;;;;4218282;28;20206;-80
2023/11/15 04:35:19;;;;;;;2.77;1.27;;;8.40;99.90;;;;;;4215050;28;20225;-80
2023/11/15 04:37:21;;;;;;;4.07;1.30;;;8.40;99.90;;;;;;4218842;28;20230;-78
2023/11/15 04:39:24;;;;;;;4.07;1.60;;;8.40;99.90;;;;;;4216882;28;20239;-79
2023/11/15 04:41:26;;;;;;;7.47;1.97;;;8.40;99.90;;;;;;4217905;28;20212;-79
2023/11/15 04:43:28;;;;;;;4.43;1.37;;;8.40;99.90;;;;;;4217669;28;20205;-79
2023/11/15 04:45:29;;;;;;;5.27;1.70;;;8.40;99.90;;;;;;4215757;28;20229;-80
2023/11/15 04:47:32;;;;;;;5.83;1.90;;;8.30;99.90;;;;;;4218695;28;20208;-79
2023/11/15 04:49:33;;;;;;;4.17;1.67;;;8.30;99.90;;;;;;4218040;28;20549;-79
2023/11/15 04:51:36;;;;;;;4.50;1.70;;;8.40;99.90;;;;;;4215621;28;20235;-80
2023/11/15 04:53:37;;;;;;;10.30;2.10;;;8.40;99.90;;;;;;4220186;28;20288;-79
2023/11/15 04:55:39;;;;;;;10.77;2.13;;;8.30;99.90;;;;;;4216296;28;20692;-80
2023/11/15 04:57:41;;;;;;;12.80;2.20;;;8.30;99.90;;;;;;4224523;28;20299;-80
2023/11/15 04:59:43;;;;;;;5.53;2.27;;;8.30;99.90;;;;;;4218101;28;20220;-80
2023/11/15 05:01:45;;;;;;;3.73;2.00;;;8.30;99.90;;;;;;4215684;28;20729;-80
2023/11/15 05:03:47;;;;;;;7.00;2.27;;;8.40;99.90;;;;;;4216930;28;20209;-80
2023/11/15 05:05:49;;;;;;;5.57;2.20;;;8.30;99.90;;;;;;4219533;28;20696;-79
2023/11/15 05:07:52;;;;;;;6.70;2.13;;;8.30;99.90;;;;;;4212281;28;20213;-79
2023/11/15 05:09:55;;;;;;;6.70;2.37;;;8.30;99.90;;;;;;4217350;28;20206;-79
2023/11/15 05:12:00;;;;;;;5.27;2.00;;;8.30;99.90;;;;;;4222235;28;20236;-80
2023/11/15 05:14:03;;;;;;;7.83;1.87;;;8.30;99.90;;;;;;4213142;28;20293;-79
2023/11/15 05:16:07;;;;;;;12.73;2.73;;;8.20;99.90;;;;;;4217339;28;20224;-79
2023/11/15 05:18:09;;;;;;;5.07;2.03;;;8.30;99.90;;;;;;4219253;28;20208;-79
2023/11/15 05:20:11;;;;;;;6.33;1.97;;;8.30;99.90;;;;;;4223125;28;20741;-78
2023/11/15 05:22:13;;;;;;;4.77;1.90;;;8.40;99.90;;;;;;4224665;28;20729;-79
2023/11/15 05:24:17;;;;;;;7.53;2.77;;;8.40;99.90;;;;;;4221234;28;20269;-80
2023/11/15 05:26:18;;;;;;;12.17;3.40;;;8.40;99.90;;;;;;4224343;28;20212;-87
2023/11/15 05:28:20;;;;;;;23.73;7.23;;;8.30;99.90;;;;;;4223487;28;20245;-79
2023/11/15 05:30:22;;;;;;;16.70;5.73;;;8.40;99.90;;;;;;4218190;28;20254;-78
2023/11/15 05:32:24;;;;;;;9.70;2.93;;;8.40;99.90;;;;;;4224155;28;20622;-79
2023/11/15 05:34:29;;;;;;;4.37;1.93;;;8.30;99.90;;;;;;4219957;28;20205;-79
2023/11/15 05:36:32;;;;;;;12.77;5.60;;;8.40;99.90;;;;;;4221059;28;20229;-78
2023/11/15 05:38:34;;;;;;;10.60;3.80;;;8.40;99.90;;;;;;4220388;28;20202;-79
2023/11/15 05:40:44;;;;;;;10.47;5.37;;;8.40;99.90;;;;;;4220487;28;20197;-78
2023/11/15 05:42:45;;;;;;;10.03;5.23;;;8.40;99.90;;;;;;4226897;28;20208;-81
2023/11/15 05:44:48;;;;;;;12.47;4.90;;;8.40;99.90;;;;;;4222655;28;20200;-78
2023/11/15 05:46:49;;;;;;;9.70;4.97;;;8.40;99.90;;;;;;4223358;28;20258;-79
2023/11/15 05:48:51;;;;;;;16.40;5.83;;;8.30;99.90;;;;;;4215607;28;20202;-78
2023/11/15 05:50:53;;;;;;;11.17;4.90;;;8.30;99.90;;;;;;4220524;28;20217;-79
2023/11/15 05:52:55;;;;;;;12.53;3.87;;;8.40;99.90;;;;;;4220120;28;20245;-78
2023/11/15 05:54:57;;;;;;;7.23;3.17;;;8.40;99.90;;;;;;4220445;28;20263;-79
2023/11/15 05:57:04;;;;;;;8.40;2.90;;;8.40;99.90;;;;;;4221108;28;20273;-79
2023/11/15 05:59:05;;;;;;;6.50;2.93;;;8.50;99.90;;;;;;4223087;28;20259;-78
2023/11/15 06:01:07;;;;;;;6.57;2.40;;;8.40;99.90;;;;;;4222012;28;20202;-78
2023/11/15 06:03:10;;;;;;;3.43;1.77;;;8.40;99.90;;;;;;4224067;28;20201;-78
2023/11/15 06:05:12;;;;;;;16.53;2.97;;;8.40;99.90;;;;;;4227235;28;20214;-78
2023/11/15 06:07:13;;;;;;;11.63;3.87;;;8.40;99.90;;;;;;4220472;28;20282;-78
2023/11/15 06:09:17;;;;;;;11.57;4.17;;;8.40;99.90;;;;;;4223650;28;20654;-78
2023/11/15 06:11:19;;;;;;;21.13;5.07;;;8.40;99.90;;;;;;4220693;28;20420;-78
2023/11/15 06:13:24;;;;;;;15.50;5.20;;;8.40;99.90;;;;;;4222799;28;20308;-78
2023/11/15 06:15:25;;;;;;;12.67;3.40;;;8.40;99.90;;;;;;4219147;28;20647;-79
2023/11/15 06:17:28;;;;;;;8.97;3.00;;;8.40;99.90;;;;;;4222454;28;20287;-78
2023/11/15 06:19:31;;;;;;;10.27;2.90;;;8.40;99.90;;;;;;4219035;28;20670;-77
2023/11/15 06:21:33;;;;;;;6.87;2.37;;;8.40;99.90;;;;;;4219751;28;20197;-79
2023/11/15 06:23:35;;;;;;;9.53;2.70;;;8.40;99.90;;;;;;4225529;28;20224;-77
2023/11/15 06:25:39;;;;;;;5.23;2.50;;;8.40;99.90;;;;;;4219011;28;20234;-78
2023/11/15 06:27:42;;;;;;;4.00;2.13;;;8.40;99.90;;;;;;4218875;28;20220;-77
2023/11/15 06:29:48;;;;;;;7.97;2.83;;;8.40;99.90;;;;;;4221667;28;20275;-78
2023/11/15 06:31:50;;;;;;;7.17;3.17;;;8.40;99.90;;;;;;4222088;28;20213;-78
2023/11/15 06:33:52;;;;;;;11.70;4.40;;;8.40;99.90;;;;;;4216574;28;20263;-78
2023/11/15 06:35:53;;;;;;;10.13;3.40;;;8.40;99.90;;;;;;4222815;28;20221;-77
2023/11/15 06:37:55;;;;;;;10.63;4.00;;;8.40;99.90;;;;;;4219528;28;20210;-78
2023/11/15 06:39:57;;;;;;;10.73;4.03;;;8.40;99.90;;;;;;4220719;28;20217;-78
2023/11/15 06:41:59;;;;;;;6.80;3.13;;;8.40;99.90;;;;;;4217427;28;20698;-79
2023/11/15 06:44:03;;;;;;;9.80;3.60;;;8.40;99.90;;;;;;4216641;28;20860;-77
2023/11/15 06:46:06;;;;;;;11.80;3.77;;;8.40;99.90;;;;;;4219158;28;20595;-78
2023/11/15 06:48:08;;;;;;;13.53;4.60;;;8.40;99.90;;;;;;4221978;28;20266;-77
2023/11/15 06:50:12;;;;;;;12.10;4.30;;;8.50;99.90;;;;;;4224519;28;20208;-77
2023/11/15 06:52:14;;;;;;;11.60;3.27;;;8.40;99.90;;;;;;4223154;28;20240;-77
2023/11/15 06:54:15;;;;;;;24.57;6.50;;;8.40;99.90;;;;;;4218965;28;20604;-79
2023/11/15 06:56:17;;;;;;;15.50;5.63;;;8.40;99.90;;;;;;4219248;28;20221;-78
2023/11/15 06:58:21;;;;;;;13.97;4.80;;;8.40;99.90;;;;;;4223856;28;20236;-77
2023/11/15 07:00:25;;;;;;;12.43;3.83;;;8.40;99.90;;;;;;4221463;28;20229;-84
2023/11/15 07:02:28;;;;;;;7.40;3.30;;;8.40;99.90;;;;;;4221397;28;20727;-82
2023/11/15 07:04:30;;;;;;;6.13;2.90;;;8.40;99.90;;;;;;4215179;28;20205;-83
2023/11/15 07:06:33;;;;;;;7.93;2.70;;;8.50;99.90;;;;;;4225970;28;20245;-81
2023/11/15 07:08:35;;;;;;;9.63;2.80;;;8.40;99.90;;;;;;4223526;28;20207;-80
2023/11/15 07:10:38;;;;;;;7.70;2.57;;;8.60;99.90;;;;;;4218696;28;20211;-78
2023/11/15 07:12:39;;;;;;;8.17;2.53;;;8.50;99.90;;;;;;4218298;28;20217;-78
2023/11/15 07:14:44;;;;;;;6.93;2.63;;;8.30;99.90;;;;;;4221047;28;20210;-79
2023/11/15 07:16:47;;;;;;;6.63;3.30;;;8.30;99.90;;;;;;4222295;28;20249;-80
2023/11/15 07:18:50;;;;;;;6.83;4.13;;;8.30;99.90;;;;;;4223697;28;20230;-79
2023/11/15 07:20:51;;;;;;;9.47;2.90;;;8.30;99.90;;;;;;4223863;28;20217;-78
2023/11/15 07:22:53;;;;;;;8.70;3.33;;;8.30;99.90;;;;;;4223307;28;20193;-78
2023/11/15 07:24:55;;;;;;;9.57;2.67;;;8.30;99.90;;;;;;4217936;28;20259;-78
2023/11/15 07:26:57;;;;;;;6.07;2.60;;;8.30;99.90;;;;;;4220549;28;20738;-78
2023/11/15 07:29:00;;;;;;;6.57;2.77;;;8.30;99.90;;;;;;4220819;28;20628;-79
2023/11/15 07:31:02;;;;;;;5.63;2.20;;;8.30;99.90;;;;;;4219915;28;20201;-78
2023/11/15 07:33:04;;;;;;;6.77;2.00;;;8.30;99.90;;;;;;4217138;28;20292;-77
2023/11/15 07:35:08;;;;;;;4.43;1.90;;;8.30;99.90;;;;;;4220607;28;20642;-77
2023/11/15 07:37:10;;;;;;;5.50;2.23;;;8.30;99.90;;;;;;4239036;27;20355;-78
2023/11/15 07:39:13;;;;;;;2.57;1.90;;;8.30;99.90;;;;;;4220104;28;20201;-78
2023/11/15 07:41:17;;;;;;;6.03;1.60;;;8.30;99.90;;;;;;4225441;28;20241;-78
2023/11/15 07:43:19;;;;;;;2.70;1.37;;;8.30;99.90;;;;;;4220939;28;20244;-78
2023/11/15 07:45:21;;;;;;;2.93;1.57;;;8.20;99.90;;;;;;4219191;28;20233;-78
2023/11/15 07:47:23;;;;;;;2.47;1.50;;;8.20;99.90;;;;;;4225609;28;20271;-79
2023/11/15 07:49:26;;;;;;;2.10;1.33;;;8.10;99.90;;;;;;4219923;28;20214;-78
2023/11/15 07:51:30;;;;;;;2.87;1.70;;;8.10;99.90;;;;;;4224788;28;20217;-78
2023/11/15 07:53:34;;;;;;;4.83;1.83;;;8.00;99.90;;;;;;4216963;28;20193;-79
2023/11/15 07:55:37;;;;;;;2.33;1.63;;;8.00;99.90;;;;;;4223386;28;20230;-79
2023/11/15 07:57:39;;;;;;;2.90;1.50;;;8.00;99.90;;;;;;4217183;28;20300;-79
2023/11/15 07:59:41;;;;;;;7.43;1.83;;;8.00;99.90;;;;;;4218583;28;20201;-78
2023/11/15 08:01:43;;;;;;;10.87;3.00;;;8.00;99.90;;;;;;4219731;28;20275;-78
2023/11/15 08:03:49;;;;;;;10.60;3.60;;;7.90;99.90;;;;;;4223893;28;20669;-78
2023/11/15 08:05:51;;;;;;;33.40;7.03;;;7.90;99.90;;;;;;4223029;28;20229;-78
2023/11/15 08:07:56;;;;;;;18.17;5.43;;;7.90;99.90;;;;;;4222670;28;20245;-78
2023/11/15 08:09:58;;;;;;;13.17;3.70;;;7.90;99.90;;;;;;4219940;28;20211;-79
2023/11/15 08:12:01;;;;;;;9.80;3.00;;;7.90;99.90;;;;;;4217727;28;20781;-78
2023/11/15 08:14:06;;;;;;;4.93;2.07;;;7.90;99.90;;;;;;4219122;28;20269;-78
2023/11/15 08:16:12;;;;;;;5.33;1.97;;;7.90;99.90;;;;;;4220093;28;20223;-78
2023/11/15 08:18:13;;;;;;;3.60;1.90;;;7.90;99.90;;;;;;4219620;28;20208;-78
2023/11/15 08:20:17;;;;;;;2.90;1.90;;;7.90;99.90;;;;;;4219648;28;20710;-78
2023/11/15 08:22:19;;;;;;;8.23;3.57;;;7.90;99.90;;;;;;4215306;28;20296;-79
2023/11/15 08:24:22;;;;;;;6.87;3.30;;;8.00;99.90;;;;;;4224198;28;20211;-80
2023/11/15 08:26:24;;;;;;;3.33;2.20;;;7.90;99.90;;;;;;4222507;28;20232;-79
2023/11/15 08:28:26;;;;;;;4.00;2.70;;;7.90;99.90;;;;;;4220056;28;20224;-80
2023/11/15 08:30:28;;;;;;;9.20;2.77;;;7.90;99.90;;;;;;4223520;28;20216;-80
2023/11/15 08:32:31;;;;;;;3.27;1.80;;;7.90;99.90;;;;;;4220740;28;20210;-80
2023/11/15 08:34:33;;;;;;;2.73;1.87;;;8.00;99.90;;;;;;4220872;28;20216;-79
2023/11/15 08:36:35;;;;;;;3.43;1.73;;;8.00;99.90;;;;;;4218354;28;20241;-77
2023/11/15 08:38:37;;;;;;;3.23;2.00;;;8.00;99.90;;;;;;4220732;28;20259;-79
2023/11/15 08:40:40;;;;;;;2.80;1.80;;;8.10;99.90;;;;;;4222506;28;20213;-78
2023/11/15 08:42:42;;;;;;;5.30;2.10;;;8.10;99.90;;;;;;4221039;28;20288;-78
2023/11/15 08:44:44;;;;;;;3.50;2.10;;;8.10;99.90;;;;;;4218305;28;20725;-80
2023/11/15 08:46:47;;;;;;;5.80;2.43;;;8.10;99.90;;;;;;4217037;28;20293;-78
2023/11/15 08:48:52;;;;;;;11.57;3.00;;;8.10;99.90;;;;;;4224240;28;20212;-78
2023/11/15 08:50:54;;;;;;;14.60;4.70;;;8.10;99.90;;;;;;4222500;28;20573;-78
2023/11/15 08:52:56;;;;;;;14.17;4.37;;;8.10;99.90;;;;;;4218527;28;20261;-78
2023/11/15 08:54:58;;;;;;;7.20;3.10;;;8.10;99.90;;;;;;4219988;28;20975;-78
2023/11/15 08:57:01;;;;;;;8.00;2.83;;;8.10;99.90;;;;;;4218877;28;20795;-78
2023/11/15 08:59:04;;;;;;;5.73;2.87;;;8.10;99.90;;;;;;4222012;28;20283;-78
2023/11/15 09:01:09;;;;;;;7.63;2.87;;;8.10;99.90;;;;;;4225067;28;20207;-79
2023/11/15 09:03:11;;;;;;;6.40;3.03;;;8.10;99.90;;;;;;4213946;28;20205;-78
2023/11/15 09:05:14;;;;;;;5.33;3.10;;;8.10;99.90;;;;;;4217162;28;20205;-78
2023/11/15 09:07:16;;;;;;;5.93;3.27;;;8.10;99.90;;;;;;4218695;28;20308;-80
2023/11/15 09:09:17;;;;;;;5.07;3.27;;;8.20;99.90;;;;;;4216191;28;20743;-78
2023/11/15 09:11:19;;;;;;;7.33;3.47;;;8.20;99.90;;;;;;4215213;28;20205;-78
2023/11/15 09:13:23;;;;;;;12.97;3.67;;;8.20;99.90;;;;;;4218849;28;20686;-79
2023/11/15 09:15:25;;;;;;;6.87;3.30;;;8.20;99.90;;;;;;4219608;28;20241;-79
2023/11/15 09:17:27;;;;;;;7.53;2.93;;;8.20;99.90;;;;;;4217526;28;20247;-80
2023/11/15 09:19:29;;;;;;;4.80;2.90;;;8.30;99.90;;;;;;4223350;28;20445;-79
2023/11/15 09:21:32;;;;;;;7.40;3.00;;;8.30;99.90;;;;;;4217769;28;20201;-79
2023/11/15 09:23:36;;;;;;;6.77;2.67;;;8.30;99.90;;;;;;4223801;28;20295;-83
2023/11/15 09:25:39;;;;;;;8.67;2.73;;;8.30;99.90;;;;;;4221635;28;20225;-81
2023/11/15 09:27:42;;;;;;;6.30;2.63;;;8.80;99.90;;;;;;4228167;28;20233;-83
2023/11/15 09:29:45;;;;;;;17.47;5.70;;;8.40;99.90;;;;;;4223804;28;20212;-82
2023/11/15 09:31:47;;;;;;;20.90;5.93;;;8.40;99.90;;;;;;4225425;28;20259;-82
2023/11/15 09:33:51;;;;;;;19.17;6.20;;;8.40;99.90;;;;;;4224845;28;20741;-83
2023/11/15 09:35:53;;;;;;;20.17;6.63;;;8.40;99.90;;;;;;4222602;28;20628;-82
2023/11/15 09:37:57;;;;;;;13.17;5.33;;;8.50;99.90;;;;;;4223158;28;20673;-83
2023/11/15 09:39:59;;;;;;;8.17;4.40;;;8.50;99.90;;;;;;4229419;28;20767;-82
2023/11/15 09:42:03;;;;;;;9.87;4.03;;;8.50;99.90;;;;;;4224489;27;20274;-83
2023/11/15 09:44:10;;;;;;;7.20;3.90;;;8.50;99.90;;;;;;4225997;27;20204;-83
2023/11/15 09:46:17;;;;;;;6.27;3.30;;;8.90;99.90;;;;;;4228488;28;20231;-82
2023/11/15 09:48:18;;;;;;;6.30;3.23;;;8.40;99.90;;;;;;4224811;28;20224;-83
2023/11/15 09:50:22;;;;;;;8.23;3.43;;;8.40;99.90;;;;;;4225697;27;20288;-82
2023/11/15 09:52:24;;;;;;;5.63;3.20;;;8.40;99.90;;;;;;4222601;28;20652;-82
2023/11/15 09:54:26;;;;;;;5.10;3.10;;;8.30;99.90;;;;;;4229189;28;20209;-83
2023/11/15 09:56:28;;;;;;;6.97;2.93;;;8.30;99.90;;;;;;4229392;27;20278;-82
2023/11/15 09:58:32;;;;;;;4.90;2.83;;;8.60;99.90;;;;;;4229469;28;20196;-82
2023/11/15 10:00:35;;;;;;;5.27;2.77;;;8.30;99.90;;;;;;4227052;28;20216;-82
2023/11/15 10:02:41;;;;;;;5.50;2.60;;;8.30;99.90;;;;;;4231486;28;20206;-83
2023/11/15 10:04:44;;;;;;;5.03;2.67;;;8.70;99.90;;;;;;4224641;28;20221;-82
2023/11/15 10:06:45;;;;;;;6.40;3.07;;;8.30;99.90;;;;;;4234079;28;20227;-81
2023/11/15 10:08:53;;;;;;;13.23;4.93;;;8.30;99.90;;;;;;4232434;28;20225;-82
2023/11/15 10:11:06;;;;;;;11.93;3.93;;;8.30;99.90;;;;;;4224601;27;20286;-83
2023/11/15 10:13:13;;;;;;;8.97;4.17;;;8.30;99.90;;;;;;4229996;28;20213;-83
2023/11/15 10:15:18;;;;;;;7.83;4.30;;;8.30;99.90;;;;;;4227528;28;20634;-82
2023/11/15 10:17:21;;;;;;;6.47;3.60;;;8.40;99.90;;;;;;4222106;28;20197;-83
2023/11/15 10:19:26;;;;;;;6.03;3.87;;;8.40;99.90;;;;;;4223611;27;20243;-82
2023/11/15 10:21:28;;;;;;;7.03;3.87;;;8.40;99.90;;;;;;4226614;27;20202;-82
2023/11/15 10:23:30;;;;;;;6.33;3.40;;;8.50;99.90;;;;;;4225703;28;20197;-81
2023/11/15 10:25:47;;;;;;;5.30;3.00;;;8.80;99.90;;;;;;4226754;28;20254;-82
2023/11/15 10:27:51;;;;;;;5.97;3.60;;;8.50;99.90;;;;;;4223078;28;20221;-82
2023/11/15 10:29:53;;;;;;;9.37;4.50;;;8.60;99.90;;;;;;4226586;28;20221;-83
2023/11/15 10:32:00;;;;;;;10.37;4.10;;;8.60;99.90;;;;;;4228429;27;20227;-82
2023/11/15 10:34:10;;;;;;;9.87;5.10;;;8.60;99.90;;;;;;4227539;28;20240;-83
2023/11/15 10:36:18;;;;;;;11.93;4.90;;;8.60;99.90;;;;;;4229750;28;20622;-83
2023/11/15 10:38:22;;;;;;;9.30;4.90;;;8.60;99.90;;;;;;4221406;28;20197;-83
2023/11/15 10:40:25;;;;;;;12.47;4.77;;;8.70;99.90;;;;;;4223218;28;20209;-82
2023/11/15 10:42:29;;;;;;;9.30;4.93;;;8.70;99.90;;;;;;4226739;28;20195;-82
2023/11/15 10:44:30;;;;;;;10.13;5.20;;;8.80;99.90;;;;;;4222806;28;20210;-83
2023/11/15 10:46:33;;;;;;;9.20;5.10;;;8.70;99.90;;;;;;4227752;28;21707;-82